createdAt,value
2018-11-04T00:00:24.721Z,12.20
2018-11-04T00:02:53.428Z,11.87
2018-11-04T00:05:22.072Z,11.90
2018-11-04T00:07:51.427Z,10.80
2018-11-04T00:10:20.042Z,11.83
2018-11-04T00:12:48.656Z,10.93
2018-11-04T00:15:17.323Z,11.47
2018-11-04T00:17:45.985Z,10.80
2018-11-04T00:20:15.479Z,11.30
2018-11-04T00:22:46.647Z,11.33
2018-11-04T00:25:18.280Z,11.10
2018-11-04T00:27:48.015Z,11.17
2018-11-04T00:30:16.915Z,10.40
2018-11-04T00:32:46.997Z,10.07
2018-11-04T00:35:15.901Z,9.97
2018-11-04T00:37:45.289Z,10.27
2018-11-04T00:40:15.602Z,10.30
2018-11-04T00:42:44.219Z,10.40
2018-11-04T00:45:14.866Z,10.10
2018-11-04T00:47:44.720Z,9.50
2018-11-04T00:50:14.764Z,9.90
2018-11-04T00:52:44.497Z,9.70
2018-11-04T00:55:13.611Z,10.10
2018-11-04T00:57:42.360Z,9.80
2018-11-04T01:00:13.561Z,10.50
2018-11-04T01:02:43.778Z,10.70
2018-11-04T01:05:12.469Z,11.27
2018-11-04T01:07:41.117Z,11.83
2018-11-04T01:10:10.845Z,12.83
2018-11-04T01:12:39.795Z,12.03
2018-11-04T01:15:09.673Z,13.87
2018-11-04T01:17:38.308Z,13.23
2018-11-04T01:20:08.727Z,13.03
2018-11-04T01:22:37.342Z,13.30
2018-11-04T01:25:06.022Z,13.03
2018-11-04T01:27:34.633Z,13.33
2018-11-04T01:30:03.288Z,13.80
2018-11-04T01:32:31.893Z,13.50
2018-11-04T01:35:00.457Z,14.33
2018-11-04T01:37:29.006Z,13.57
2018-11-04T01:39:57.569Z,14.40
2018-11-04T01:42:26.281Z,14.17
2018-11-04T01:44:54.932Z,14.43
2018-11-04T01:47:23.506Z,14.40
2018-11-04T01:49:52.133Z,14.50
2018-11-04T01:52:20.746Z,14.20
2018-11-04T01:54:49.326Z,14.83
2018-11-04T01:57:18.960Z,14.70
2018-11-04T01:59:47.617Z,15.00
2018-11-04T02:02:16.591Z,14.87
2018-11-04T02:04:45.904Z,15.17
2018-11-04T02:07:16.346Z,15.53
2018-11-04T02:09:45.584Z,14.67
2018-11-04T02:12:14.656Z,15.33
2018-11-04T02:14:43.301Z,14.20
2018-11-04T02:17:12.300Z,12.90
2018-11-04T02:19:40.957Z,12.80
2018-11-04T02:22:09.551Z,12.20
2018-11-04T02:24:38.283Z,12.83
2018-11-04T02:27:07.316Z,12.67
2018-11-04T02:29:36.581Z,12.27
2018-11-04T02:32:06.764Z,13.90
2018-11-04T02:34:36.641Z,12.87
2018-11-04T02:37:05.657Z,12.17
2018-11-04T02:39:34.275Z,13.27
2018-11-04T02:42:02.870Z,13.07
2018-11-04T02:44:31.462Z,12.70
2018-11-04T02:47:00.097Z,15.13
2018-11-04T02:49:28.566Z,15.50
2018-11-04T02:51:57.173Z,16.20
2018-11-04T02:54:25.793Z,16.50
2018-11-04T02:56:54.389Z,16.90
2018-11-04T02:59:22.945Z,17.23
2018-11-04T03:01:51.570Z,17.90
2018-11-04T03:04:20.179Z,19.20
2018-11-04T03:06:48.722Z,18.40
2018-11-04T03:09:17.334Z,17.83
2018-11-04T03:11:45.964Z,18.23
2018-11-04T03:14:14.574Z,18.47
2018-11-04T03:16:43.162Z,20.07
2018-11-04T03:19:11.722Z,19.27
2018-11-04T03:21:40.282Z,18.93
2018-11-04T03:24:08.877Z,19.87
2018-11-04T03:26:37.472Z,19.07
2018-11-04T03:29:06.103Z,18.97
2018-11-04T03:31:34.666Z,19.77
2018-11-04T03:34:03.273Z,20.23
2018-11-04T03:36:31.873Z,20.40
2018-11-04T03:39:00.487Z,20.20
2018-11-04T03:41:29.168Z,20.80
2018-11-04T03:43:57.725Z,20.50
2018-11-04T03:46:26.336Z,20.20
2018-11-04T03:48:54.947Z,21.37
2018-11-04T03:51:23.700Z,20.70
2018-11-04T03:53:52.364Z,21.33
2018-11-04T03:56:20.933Z,20.63
2018-11-04T03:58:49.481Z,21.23
2018-11-04T04:01:18.246Z,20.40
2018-11-04T04:03:46.854Z,21.03
2018-11-04T04:06:15.451Z,22.00
2018-11-04T04:08:44.066Z,21.00
2018-11-04T04:11:12.673Z,22.13
2018-11-04T04:13:41.231Z,21.73
2018-11-04T04:16:09.839Z,21.77
2018-11-04T04:18:38.487Z,21.90
2018-11-04T04:21:08.816Z,21.20
2018-11-04T04:23:38.488Z,21.60
2018-11-04T04:26:07.857Z,21.67
2018-11-04T04:28:36.441Z,20.60
2018-11-04T04:31:05.207Z,22.23
2018-11-04T04:33:33.850Z,23.03
2018-11-04T04:36:02.474Z,22.37
2018-11-04T04:38:31.109Z,21.67
2018-11-04T04:41:00.742Z,22.00
2018-11-04T04:43:30.084Z,21.80
2018-11-04T04:45:58.840Z,22.87
2018-11-04T04:48:27.522Z,21.90
2018-11-04T04:50:56.101Z,22.20
2018-11-04T04:53:25.370Z,22.30
2018-11-04T04:55:56.531Z,22.77
2018-11-04T04:58:25.109Z,23.00
2018-11-04T05:00:54.346Z,21.93
2018-11-04T05:03:23.497Z,23.20
2018-11-04T05:05:52.165Z,22.50
2018-11-04T05:08:20.806Z,22.80
2018-11-04T05:10:49.898Z,23.37
2018-11-04T05:13:25.069Z,22.37
2018-11-04T05:15:53.650Z,22.93
2018-11-04T05:18:22.281Z,23.03
2018-11-04T05:20:50.881Z,22.13
2018-11-04T05:23:19.508Z,22.90
2018-11-04T05:25:49.656Z,22.87
2018-11-04T05:28:20.470Z,23.00
2018-11-04T05:30:49.023Z,23.63
2018-11-04T05:33:17.614Z,22.77
2018-11-04T05:35:46.242Z,23.70
2018-11-04T05:38:18.008Z,22.77
2018-11-04T05:40:46.648Z,23.47
2018-11-04T05:43:21.483Z,23.80
2018-11-04T05:45:52.348Z,23.93
2018-11-04T05:48:28.354Z,23.47
2018-11-04T05:50:57.905Z,23.83
2018-11-04T05:53:28.696Z,22.27
2018-11-04T05:55:58.921Z,24.30
2018-11-04T05:58:31.826Z,23.47
2018-11-04T06:01:01.659Z,23.63
2018-11-04T06:03:33.701Z,23.10
2018-11-04T06:06:03.692Z,22.83
2018-11-04T06:08:33.956Z,23.03
2018-11-04T06:11:07.168Z,23.70
2018-11-04T06:13:37.440Z,23.53
2018-11-04T06:16:08.395Z,24.10
2018-11-04T06:18:39.740Z,22.97
2018-11-04T06:21:10.015Z,22.83
2018-11-04T06:23:40.061Z,23.10
2018-11-04T06:26:09.932Z,24.37
2018-11-04T06:28:41.042Z,22.83
2018-11-04T06:31:10.317Z,22.93
2018-11-04T06:33:39.713Z,22.77
2018-11-04T06:36:09.090Z,24.03
2018-11-04T06:38:38.173Z,23.53
2018-11-04T06:41:07.388Z,23.13
2018-11-04T06:43:36.561Z,23.03
2018-11-04T06:46:06.164Z,24.00
2018-11-04T06:48:35.219Z,23.40
2018-11-04T06:51:04.517Z,23.13
2018-11-04T06:53:34.313Z,22.70
2018-11-04T06:56:03.481Z,23.33
2018-11-04T06:58:33.161Z,23.53
2018-11-04T07:01:02.400Z,22.57
2018-11-04T07:03:31.561Z,23.03
2018-11-04T07:06:00.839Z,23.03
2018-11-04T07:08:30.248Z,23.03
2018-11-04T07:10:59.361Z,22.20
2018-11-04T07:13:28.772Z,22.40
2018-11-04T07:15:57.848Z,22.97
2018-11-04T07:18:26.860Z,24.50
2018-11-04T07:20:56.455Z,23.40
2018-11-04T07:23:25.555Z,23.13
2018-11-04T07:25:54.742Z,21.50
2018-11-04T07:28:23.754Z,20.53
2018-11-04T07:30:52.720Z,20.93
2018-11-04T07:33:21.749Z,19.60
2018-11-04T07:35:50.829Z,20.20
2018-11-04T07:38:19.713Z,21.77
2018-11-04T07:40:48.394Z,19.40
2018-11-04T07:43:17.215Z,19.97
2018-11-04T07:45:46.461Z,19.33
2018-11-04T07:48:15.183Z,19.60
2018-11-04T07:50:44.273Z,24.95
2018-11-04T07:53:13.002Z,22.55
2018-11-04T07:55:42.206Z,19.70
2018-11-04T07:58:11.301Z,22.70
2018-11-04T08:00:40.224Z,23.57
2018-11-04T08:03:08.925Z,21.67
2018-11-04T08:05:38.334Z,20.63
2018-11-04T08:08:07.239Z,20.20
2018-11-04T08:10:36.097Z,21.73
2018-11-04T08:13:04.903Z,19.77
2018-11-04T08:15:33.705Z,20.80
2018-11-04T08:18:02.363Z,20.97
2018-11-04T08:20:31.015Z,22.73
2018-11-04T08:22:59.879Z,22.47
2018-11-04T08:25:28.513Z,27.67
2018-11-04T08:27:57.703Z,23.90
2018-11-04T08:30:26.379Z,23.73
2018-11-04T08:32:54.962Z,25.03
2018-11-04T08:35:23.584Z,23.03
2018-11-04T08:37:52.265Z,27.50
2018-11-04T08:40:20.962Z,24.00
2018-11-04T08:42:49.566Z,23.33
2018-11-04T08:45:18.314Z,23.47
2018-11-04T08:47:46.925Z,24.00
2018-11-04T08:50:15.563Z,23.10
2018-11-04T08:52:44.351Z,24.67
2018-11-04T08:55:12.910Z,23.70
2018-11-04T08:57:41.597Z,29.75
2018-11-04T09:00:12.945Z,29.82
2018-11-04T09:02:41.804Z,25.43
2018-11-04T09:05:10.696Z,25.07
2018-11-04T09:07:39.669Z,24.30
2018-11-04T09:10:14.490Z,25.07
2018-11-04T09:12:43.921Z,24.40
2018-11-04T09:15:12.912Z,26.20
2018-11-04T09:17:41.606Z,24.93
2018-11-04T09:20:12.419Z,25.50
2018-11-04T09:22:45.661Z,23.70
2018-11-04T09:25:14.879Z,24.93
2018-11-04T09:27:43.775Z,26.70
2018-11-04T09:30:14.001Z,23.90
2018-11-04T09:32:42.747Z,25.50
2018-11-04T09:35:12.047Z,25.37
2018-11-04T09:37:40.857Z,24.73
2018-11-04T09:40:10.823Z,25.30
2018-11-04T09:42:39.396Z,24.70
2018-11-04T09:45:08.715Z,24.13
2018-11-04T09:47:37.821Z,23.87
2018-11-04T09:50:07.819Z,23.50
2018-11-04T09:52:36.422Z,23.73
2018-11-04T09:55:05.914Z,27.07
2018-11-04T09:57:34.572Z,25.30
2018-11-04T10:00:03.221Z,23.60
2018-11-04T10:02:31.885Z,24.83
2018-11-04T10:05:00.400Z,23.83
2018-11-04T10:07:29.073Z,24.97
2018-11-04T10:09:57.672Z,25.30
2018-11-04T10:12:26.728Z,23.93
2018-11-04T10:14:55.989Z,23.90
2018-11-04T10:17:24.783Z,24.53
2018-11-04T10:19:53.733Z,23.80
2018-11-04T10:22:22.464Z,23.43
2018-11-04T10:24:51.434Z,22.80
2018-11-04T10:27:20.119Z,23.67
2018-11-04T10:29:48.874Z,24.10
2018-11-04T10:32:17.710Z,22.13
2018-11-04T10:34:46.786Z,23.30
2018-11-04T10:37:15.450Z,22.53
2018-11-04T10:39:44.257Z,24.17
2018-11-04T10:42:12.939Z,22.80
2018-11-04T10:44:41.720Z,24.17
2018-11-04T10:47:10.669Z,23.03
2018-11-04T10:49:39.533Z,24.00
2018-11-04T10:52:08.343Z,23.20
2018-11-04T10:54:37.027Z,22.87
2018-11-04T10:57:06.060Z,22.70
2018-11-04T10:59:34.994Z,23.27
2018-11-04T11:02:03.776Z,24.00
2018-11-04T11:04:32.838Z,26.00
2018-11-04T11:07:01.963Z,23.00
2018-11-04T11:09:30.648Z,23.23
2018-11-04T11:11:59.536Z,22.70
2018-11-04T11:14:28.122Z,22.67
2018-11-04T11:16:56.705Z,24.00
2018-11-04T11:19:25.359Z,23.07
2018-11-04T11:21:54.592Z,22.87
2018-11-04T11:24:23.225Z,22.90
2018-11-04T11:26:52.108Z,23.80
2018-11-04T11:29:20.977Z,23.63
2018-11-04T11:31:49.663Z,22.93
2018-11-04T11:34:18.254Z,22.57
2018-11-04T11:36:47.004Z,24.00
2018-11-04T11:39:15.700Z,23.67
2018-11-04T11:41:44.723Z,22.60
2018-11-04T11:44:13.406Z,22.33
2018-11-04T11:46:42.021Z,22.00
2018-11-04T11:49:10.578Z,21.27
2018-11-04T11:51:39.262Z,23.13
2018-11-04T11:54:08.142Z,21.63
2018-11-04T11:56:36.768Z,21.90
2018-11-04T11:59:05.519Z,22.17
2018-11-04T12:01:34.087Z,22.00
2018-11-04T12:04:02.690Z,21.73
2018-11-04T12:06:31.247Z,23.33
2018-11-04T12:08:59.883Z,22.27
2018-11-04T12:11:28.693Z,21.47
2018-11-04T12:13:57.217Z,21.27
2018-11-04T12:16:25.736Z,21.73
2018-11-04T12:18:54.337Z,22.13
2018-11-04T12:21:23.036Z,24.15
2018-11-04T12:23:51.598Z,20.70
2018-11-04T12:26:20.221Z,20.03
2018-11-04T12:28:48.762Z,20.17
2018-11-04T12:31:17.438Z,19.13
2018-11-04T12:33:45.993Z,20.07
2018-11-04T12:36:14.993Z,19.57
2018-11-04T12:38:43.794Z,18.03
2018-11-04T12:41:12.400Z,19.90
2018-11-04T12:43:40.950Z,19.67
2018-11-04T12:46:09.542Z,18.97
2018-11-04T12:48:38.137Z,19.07
2018-11-04T12:51:06.725Z,19.57
2018-11-04T12:53:35.419Z,18.77
2018-11-04T12:56:04.031Z,18.30
2018-11-04T12:58:32.615Z,18.47
2018-11-04T13:01:01.270Z,22.00
2018-11-04T13:03:29.857Z,19.93
2018-11-04T13:05:58.517Z,18.80
2018-11-04T13:08:27.128Z,19.10
2018-11-04T13:10:55.764Z,18.50
2018-11-04T13:13:24.367Z,20.50
2018-11-04T13:15:53.000Z,19.43
2018-11-04T13:18:21.681Z,18.53
2018-11-04T13:20:50.295Z,18.70
2018-11-04T13:23:18.931Z,18.40
2018-11-04T13:25:47.576Z,18.80
2018-11-04T13:28:16.236Z,18.77
2018-11-04T13:30:44.885Z,19.50
2018-11-04T13:33:13.750Z,18.60
2018-11-04T13:35:42.565Z,19.07
2018-11-04T13:38:11.295Z,18.43
2018-11-04T13:40:39.939Z,18.37
2018-11-04T13:43:08.944Z,18.10
2018-11-04T13:45:37.673Z,17.40
2018-11-04T13:48:06.776Z,18.87
2018-11-04T13:50:35.437Z,17.53
2018-11-04T13:53:04.040Z,16.87
2018-11-04T13:55:32.611Z,17.80
2018-11-04T13:58:01.185Z,16.37
2018-11-04T14:00:29.765Z,16.93
2018-11-04T14:02:58.470Z,17.10
2018-11-04T14:05:26.968Z,15.87
2018-11-04T14:07:55.559Z,15.40
2018-11-04T14:10:24.150Z,15.97
2018-11-04T14:12:52.745Z,15.53
2018-11-04T14:15:21.318Z,17.00
2018-11-04T14:17:49.897Z,16.37
2018-11-04T14:20:18.470Z,16.53
2018-11-04T14:22:47.009Z,16.43
2018-11-04T14:25:16.323Z,16.43
2018-11-04T14:27:47.065Z,16.93
2018-11-04T14:30:16.274Z,17.50
2018-11-04T14:32:44.889Z,17.70
2018-11-04T14:35:13.849Z,18.07
2018-11-04T14:37:43.055Z,18.90
2018-11-04T14:40:14.267Z,18.20
2018-11-04T14:42:43.596Z,18.00
2018-11-04T14:45:12.213Z,18.73
2018-11-04T14:47:40.908Z,19.13
2018-11-04T14:50:13.235Z,18.20
2018-11-04T14:52:41.929Z,17.43
2018-11-04T14:55:10.718Z,17.57
2018-11-04T14:57:39.312Z,17.40
2018-11-04T15:00:10.140Z,17.23
2018-11-04T15:02:38.791Z,16.77
2018-11-04T15:05:08.297Z,17.07
2018-11-04T15:07:36.957Z,16.63
2018-11-04T15:10:07.017Z,16.70
2018-11-04T15:12:35.701Z,16.40
2018-11-04T15:15:04.686Z,16.80
2018-11-04T15:17:33.389Z,16.87
2018-11-04T15:20:02.018Z,15.90
2018-11-04T15:22:30.585Z,15.70
2018-11-04T15:24:59.166Z,16.17
2018-11-04T15:27:27.731Z,16.43
2018-11-04T15:29:56.278Z,16.77
2018-11-04T15:32:24.855Z,17.33
2018-11-04T15:34:53.515Z,17.30
2018-11-04T15:37:22.181Z,15.90
2018-11-04T15:39:50.770Z,16.70
2018-11-04T15:42:19.416Z,16.27
2018-11-04T15:44:47.984Z,17.60
2018-11-04T15:47:16.552Z,16.57
2018-11-04T15:49:45.191Z,15.07
2018-11-04T15:52:13.750Z,16.10
2018-11-04T15:54:42.939Z,15.37
2018-11-04T15:57:13.369Z,17.17
2018-11-04T15:59:42.697Z,15.30
2018-11-04T16:02:11.429Z,15.67
2018-11-04T16:04:44.548Z,16.10
2018-11-04T16:07:09.121Z,16.33
2018-11-04T16:09:39.257Z,16.47
2018-11-04T16:12:09.579Z,17.03
2018-11-04T16:14:39.199Z,15.87
2018-11-04T16:17:07.943Z,15.63
2018-11-04T16:19:36.627Z,15.63
2018-11-04T16:22:05.977Z,16.67
2018-11-04T16:24:34.969Z,14.80
2018-11-04T16:27:03.682Z,15.27
2018-11-04T16:29:32.334Z,15.20
2018-11-04T16:32:01.330Z,16.27
2018-11-04T16:34:31.115Z,15.17
2018-11-04T16:37:01.177Z,15.33
2018-11-04T16:39:30.025Z,14.97
2018-11-04T16:41:59.641Z,14.27
2018-11-04T16:44:34.935Z,14.87
2018-11-04T16:47:03.532Z,14.33
2018-11-04T16:49:32.248Z,14.57
2018-11-04T16:52:00.827Z,13.33
2018-11-04T16:54:30.361Z,13.37
2018-11-04T16:57:02.999Z,14.57
2018-11-04T16:59:38.625Z,14.23
2018-11-04T17:02:12.058Z,14.57
2018-11-04T17:04:41.676Z,13.63
2018-11-04T17:07:11.862Z,14.60
2018-11-04T17:09:42.390Z,14.50
2018-11-04T17:12:11.152Z,14.13
2018-11-04T17:14:40.297Z,14.47
2018-11-04T17:17:11.941Z,14.80
2018-11-04T17:19:41.506Z,14.07
2018-11-04T17:22:10.810Z,14.90
2018-11-04T17:24:39.345Z,14.83
2018-11-04T17:27:08.138Z,14.33
2018-11-04T17:29:36.705Z,13.17
2018-11-04T17:32:05.556Z,14.37
2018-11-04T17:34:34.812Z,13.27
2018-11-04T17:37:04.157Z,14.17
2018-11-04T17:39:32.796Z,14.40
2018-11-04T17:42:01.548Z,14.73
2018-11-04T17:44:52.765Z,14.67
2018-11-04T17:47:22.917Z,13.87
2018-11-04T17:49:51.595Z,13.57
2018-11-04T17:52:21.189Z,13.10
2018-11-04T17:54:49.857Z,14.28
2018-11-04T17:57:19.209Z,13.73
2018-11-04T17:59:48.510Z,13.07
2018-11-04T18:02:17.763Z,12.47
2018-11-04T18:04:47.320Z,11.77
2018-11-04T18:07:16.729Z,11.80
2018-11-04T18:09:46.203Z,12.53
2018-11-04T18:12:15.153Z,11.70
2018-11-04T18:14:43.772Z,11.93
2018-11-04T18:17:13.044Z,10.63
2018-11-04T18:19:42.596Z,11.20
2018-11-04T18:22:12.562Z,10.87
2018-11-04T18:24:42.446Z,10.50
2018-11-04T18:27:11.983Z,9.63
2018-11-04T18:29:45.518Z,10.57
2018-11-04T18:32:18.860Z,10.43
2018-11-04T18:34:48.140Z,10.70
2018-11-04T18:37:17.293Z,10.33
2018-11-04T18:39:46.179Z,10.13
2018-11-04T18:42:15.327Z,10.17
2018-11-04T18:44:44.164Z,11.03
2018-11-04T18:47:12.909Z,10.37
2018-11-04T18:49:41.607Z,9.70
2018-11-04T18:52:11.440Z,9.50
2018-11-04T18:54:40.260Z,9.80
2018-11-04T18:57:08.981Z,9.80
2018-11-04T18:59:39.340Z,10.83
2018-11-04T19:02:08.473Z,10.00
2018-11-04T19:04:37.262Z,10.10
2018-11-04T19:07:07.097Z,9.87
2018-11-04T19:09:35.767Z,10.90
2018-11-04T19:12:04.843Z,10.80
2018-11-04T19:14:33.519Z,10.77
2018-11-04T19:17:02.201Z,11.07
2018-11-04T19:19:30.892Z,11.43
2018-11-04T19:21:59.641Z,13.00
2018-11-04T19:24:28.268Z,12.03
2018-11-04T19:26:56.973Z,11.50
2018-11-04T19:29:25.610Z,11.13
2018-11-04T19:31:54.307Z,10.80
2018-11-04T19:34:23.014Z,11.00
2018-11-04T19:36:51.653Z,11.30
2018-11-04T19:39:20.326Z,11.27
2018-11-04T19:41:48.989Z,11.23
2018-11-04T19:44:17.636Z,11.60
2018-11-04T19:46:46.326Z,11.43
2018-11-04T19:49:15.365Z,11.00
2018-11-04T19:51:44.236Z,11.83
2018-11-04T19:54:12.974Z,12.53
2018-11-04T19:56:41.810Z,11.30
2018-11-04T19:59:10.838Z,11.23
2018-11-04T20:01:39.881Z,11.93
2018-11-04T20:04:08.671Z,11.13
2018-11-04T20:06:37.423Z,12.20
2018-11-04T20:09:15.599Z,11.67
2018-11-04T20:11:44.968Z,11.30
2018-11-04T20:14:15.162Z,11.50
2018-11-04T20:16:44.193Z,12.27
2018-11-04T20:19:18.076Z,12.73
2018-11-04T20:21:46.942Z,11.90
2018-11-04T20:24:20.705Z,11.97
2018-11-04T20:26:49.617Z,12.10
2018-11-04T20:29:18.289Z,12.43
2018-11-04T20:31:53.209Z,12.77
2018-11-04T20:34:22.605Z,12.87
2018-11-04T20:36:51.478Z,11.83
2018-11-04T20:39:26.210Z,12.40
2018-11-04T20:41:54.979Z,13.23
2018-11-04T20:44:23.782Z,12.73
2018-11-04T20:46:52.555Z,12.70
2018-11-04T20:49:26.576Z,12.90
2018-11-04T20:51:55.403Z,13.57
2018-11-04T20:54:24.576Z,12.50
2018-11-04T20:56:58.409Z,11.80
2018-11-04T20:59:27.289Z,12.70
2018-11-04T21:01:56.129Z,11.73
2018-11-04T21:04:24.942Z,11.73
2018-11-04T21:06:53.718Z,12.23
2018-11-04T21:09:22.439Z,12.10
2018-11-04T21:11:51.134Z,12.13
2018-11-04T21:14:19.936Z,12.17
2018-11-04T21:16:48.851Z,12.00
2018-11-04T21:19:17.761Z,11.70
2018-11-04T21:21:46.589Z,12.30
2018-11-04T21:24:15.708Z,12.03
2018-11-04T21:26:44.517Z,12.10
2018-11-04T21:29:13.414Z,13.47
2018-11-04T21:31:42.072Z,12.50
2018-11-04T21:34:12.198Z,13.23
2018-11-04T21:36:41.098Z,13.17
2018-11-04T21:39:10.994Z,13.20
2018-11-04T21:41:39.819Z,12.57
2018-11-04T21:44:08.970Z,13.37
2018-11-04T21:46:38.094Z,13.73
2018-11-04T21:49:06.820Z,12.90
2018-11-04T21:51:35.670Z,13.07
2018-11-04T21:54:04.507Z,13.03
2018-11-04T21:56:33.413Z,14.00
2018-11-04T21:59:04.114Z,13.30
2018-11-04T22:01:32.841Z,13.17
2018-11-04T22:04:01.792Z,13.67
2018-11-04T22:06:30.205Z,13.70
2018-11-04T22:08:58.826Z,13.97
2018-11-04T22:11:27.595Z,13.37
2018-11-04T22:13:56.377Z,13.33
2018-11-04T22:16:24.904Z,13.83
2018-11-04T22:18:55.710Z,14.10
2018-11-04T22:21:24.539Z,14.00
2018-11-04T22:23:53.225Z,13.10
2018-11-04T22:26:21.957Z,13.37
2018-11-04T22:28:50.611Z,14.17
2018-11-04T22:31:22.413Z,13.00
2018-11-04T22:33:51.322Z,14.20
2018-11-04T22:36:20.308Z,13.50
2018-11-04T22:38:49.199Z,13.40
2018-11-04T22:41:17.896Z,14.10
2018-11-04T22:43:46.661Z,13.57
2018-11-04T22:46:15.376Z,13.63
2018-11-04T22:48:44.025Z,13.10
2018-11-04T22:51:12.680Z,13.93
2018-11-04T22:53:41.473Z,13.27
2018-11-04T22:56:10.323Z,14.13
2018-11-04T22:58:38.960Z,13.37
2018-11-04T23:01:07.879Z,13.10
2018-11-04T23:03:36.621Z,13.20
2018-11-04T23:06:07.318Z,12.03
2018-11-04T23:08:36.005Z,13.50
2018-11-04T23:11:05.046Z,14.17
2018-11-04T23:13:33.877Z,12.73
2018-11-04T23:16:02.634Z,13.30
2018-11-04T23:18:31.392Z,13.10
2018-11-04T23:20:59.981Z,12.40
2018-11-04T23:23:28.732Z,13.00
2018-11-04T23:25:57.434Z,13.07
2018-11-04T23:28:26.043Z,12.90
2018-11-04T23:30:54.666Z,13.00
2018-11-04T23:33:23.426Z,13.60
2018-11-04T23:35:52.158Z,13.37
2018-11-04T23:38:20.812Z,13.63
2018-11-04T23:40:49.521Z,13.50
2018-11-04T23:43:18.233Z,13.37
2018-11-04T23:45:46.892Z,14.03
2018-11-04T23:48:15.590Z,13.93
2018-11-04T23:50:44.226Z,14.30
2018-11-04T23:53:12.867Z,14.33
2018-11-04T23:55:41.470Z,14.10
2018-11-04T23:58:10.781Z,13.57
